sensor_id;sensor_type;location;lat;lon;timestamp;P1;durP1;ratioP1;P2;durP2;ratioP2
57315;SDS011;43156;50.942;18.144;2022-12-18T00:00:23;21.80;;;10.30;;
57315;SDS011;43156;50.942;18.144;2022-12-18T00:17:39;32.00;;;13.80;;
57315;SDS011;43156;50.942;18.144;2022-12-18T00:34:59;51.10;;;14.20;;
57315;SDS011;43156;50.942;18.144;2022-12-18T00:59:47;36.30;;;10.80;;
57315;SDS011;43156;50.942;18.144;2022-12-18T01:09:34;31.70;;;10.50;;
57315;SDS011;43156;50.942;18.144;2022-12-18T01:19:33;49.60;;;11.90;;
57315;SDS011;43156;50.942;18.144;2022-12-18T01:29:28;34.00;;;14.40;;
57315;SDS011;43156;50.942;18.144;2022-12-18T01:39:20;45.00;;;14.40;;
57315;SDS011;43156;50.942;18.144;2022-12-18T01:49:46;25.90;;;7.90;;
57315;SDS011;43156;50.942;18.144;2022-12-18T01:59:40;41.20;;;12.70;;
57315;SDS011;43156;50.942;18.144;2022-12-18T02:17:22;27.50;;;9.30;;
57315;SDS011;43156;50.942;18.144;2022-12-18T02:28:01;42.50;;;9.50;;
57315;SDS011;43156;50.942;18.144;2022-12-18T02:37:51;46.00;;;10.40;;
57315;SDS011;43156;50.942;18.144;2022-12-18T02:47:51;42.90;;;10.50;;
57315;SDS011;43156;50.942;18.144;2022-12-18T02:58:06;20.30;;;10.90;;
57315;SDS011;43156;50.942;18.144;2022-12-18T03:08:23;26.90;;;9.20;;
57315;SDS011;43156;50.942;18.144;2022-12-18T03:18:51;24.80;;;5.00;;
57315;SDS011;43156;50.942;18.144;2022-12-18T03:29:15;29.20;;;8.80;;
57315;SDS011;43156;50.942;18.144;2022-12-18T03:39:19;44.90;;;10.00;;
57315;SDS011;43156;50.942;18.144;2022-12-18T03:49:35;28.00;;;8.50;;
57315;SDS011;43156;50.942;18.144;2022-12-18T03:59:45;36.60;;;8.50;;
57315;SDS011;43156;50.942;18.144;2022-12-18T04:16:56;33.30;;;9.80;;
57315;SDS011;43156;50.942;18.144;2022-12-18T04:26:47;48.50;;;9.90;;
57315;SDS011;43156;50.942;18.144;2022-12-18T04:36:32;39.20;;;11.90;;
57315;SDS011;43156;50.942;18.144;2022-12-18T04:46:19;22.10;;;8.20;;
57315;SDS011;43156;50.942;18.144;2022-12-18T04:56:07;32.10;;;9.00;;
57315;SDS011;43156;50.942;18.144;2022-12-18T05:06:05;42.20;;;10.40;;
57315;SDS011;43156;50.942;18.144;2022-12-18T05:15:55;8.70;;;3.50;;
57315;SDS011;43156;50.942;18.144;2022-12-18T05:25:46;17.90;;;5.80;;
57315;SDS011;43156;50.942;18.144;2022-12-18T05:35:42;22.80;;;6.70;;
57315;SDS011;43156;50.942;18.144;2022-12-18T05:45:49;12.20;;;3.90;;
57315;SDS011;43156;50.942;18.144;2022-12-18T05:55:41;53.90;;;9.30;;
57315;SDS011;43156;50.942;18.144;2022-12-18T06:12:54;24.80;;;9.60;;
57315;SDS011;43156;50.942;18.144;2022-12-18T06:22:54;55.10;;;12.10;;
57315;SDS011;43156;50.942;18.144;2022-12-18T06:32:50;43.90;;;9.90;;
57315;SDS011;43156;50.942;18.144;2022-12-18T06:42:39;15.30;;;3.90;;
57315;SDS011;43156;50.942;18.144;2022-12-18T07:00:06;36.30;;;9.10;;
57315;SDS011;43156;50.942;18.144;2022-12-18T07:09:57;43.30;;;9.20;;
57315;SDS011;43156;50.942;18.144;2022-12-18T07:19:48;32.80;;;12.60;;
57315;SDS011;43156;50.942;18.144;2022-12-18T07:29:38;44.80;;;11.50;;
57315;SDS011;43156;50.942;18.144;2022-12-18T07:47:25;40.20;;;11.70;;
57315;SDS011;43156;50.942;18.144;2022-12-18T07:57:17;36.60;;;12.20;;
57315;SDS011;43156;50.942;18.144;2022-12-18T08:14:29;55.20;;;15.50;;
57315;SDS011;43156;50.942;18.144;2022-12-18T08:31:40;54.90;;;16.00;;
57315;SDS011;43156;50.942;18.144;2022-12-18T08:41:31;31.70;;;9.90;;
57315;SDS011;43156;50.942;18.144;2022-12-18T08:51:42;45.90;;;12.40;;
57315;SDS011;43156;50.942;18.144;2022-12-18T09:01:36;52.00;;;17.40;;
57315;SDS011;43156;50.942;18.144;2022-12-18T09:19:01;46.60;;;15.40;;
57315;SDS011;43156;50.942;18.144;2022-12-18T09:29:03;24.60;;;11.60;;
57315;SDS011;43156;50.942;18.144;2022-12-18T09:39:05;43.40;;;11.70;;
57315;SDS011;43156;50.942;18.144;2022-12-18T09:49:01;46.90;;;15.80;;
57315;SDS011;43156;50.942;18.144;2022-12-18T09:59:19;35.40;;;12.90;;
57315;SDS011;43156;50.942;18.144;2022-12-18T10:09:49;25.50;;;10.10;;
57315;SDS011;43156;50.942;18.144;2022-12-18T10:20:53;30.50;;;14.50;;
57315;SDS011;43156;50.942;18.144;2022-12-18T10:30:59;37.50;;;11.70;;
57315;SDS011;43156;50.942;18.144;2022-12-18T10:40:59;31.90;;;12.20;;
57315;SDS011;43156;50.942;18.144;2022-12-18T10:51:09;43.90;;;14.80;;
57315;SDS011;43156;50.942;18.144;2022-12-18T11:01:15;32.40;;;12.60;;
57315;SDS011;43156;50.942;18.144;2022-12-18T11:11:23;25.40;;;12.70;;
57315;SDS011;43156;50.942;18.144;2022-12-18T11:21:56;34.60;;;14.90;;
57315;SDS011;43156;50.942;18.144;2022-12-18T11:40:01;44.10;;;16.40;;
57315;SDS011;43156;50.942;18.144;2022-12-18T12:19:49;50.90;;;19.20;;
57315;SDS011;43156;50.942;18.144;2022-12-18T12:38:43;52.40;;;18.60;;
57315;SDS011;43156;50.942;18.144;2022-12-18T13:11:43;76.10;;;21.40;;
57315;SDS011;43156;50.942;18.144;2022-12-18T13:22:22;80.80;;;22.90;;
57315;SDS011;43156;50.942;18.144;2022-12-18T13:40:56;61.70;;;15.40;;
57315;SDS011;43156;50.942;18.144;2022-12-18T13:51:06;63.50;;;18.00;;
57315;SDS011;43156;50.942;18.144;2022-12-18T14:01:34;34.40;;;12.20;;
57315;SDS011;43156;50.942;18.144;2022-12-18T14:19:25;46.90;;;15.10;;
57315;SDS011;43156;50.942;18.144;2022-12-18T14:29:24;57.30;;;17.00;;
57315;SDS011;43156;50.942;18.144;2022-12-18T14:39:27;31.10;;;10.00;;
57315;SDS011;43156;50.942;18.144;2022-12-18T14:49:29;33.70;;;12.40;;
57315;SDS011;43156;50.942;18.144;2022-12-18T14:59:47;36.90;;;9.20;;
57315;SDS011;43156;50.942;18.144;2022-12-18T15:33:42;52.40;;;18.20;;
57315;SDS011;43156;50.942;18.144;2022-12-18T15:43:50;86.60;;;24.00;;
57315;SDS011;43156;50.942;18.144;2022-12-18T15:53:48;66.40;;;22.90;;
57315;SDS011;43156;50.942;18.144;2022-12-18T16:19:18;104.10;;;26.00;;
57315;SDS011;43156;50.942;18.144;2022-12-18T16:29:09;73.50;;;17.80;;
57315;SDS011;43156;50.942;18.144;2022-12-18T16:39:26;70.70;;;20.10;;
57315;SDS011;43156;50.942;18.144;2022-12-18T16:49:19;143.20;;;38.10;;
57315;SDS011;43156;50.942;18.144;2022-12-18T16:59:16;187.60;;;43.50;;
57315;SDS011;43156;50.942;18.144;2022-12-18T17:09:09;212.50;;;42.80;;
57315;SDS011;43156;50.942;18.144;2022-12-18T17:19:08;131.60;;;33.20;;
57315;SDS011;43156;50.942;18.144;2022-12-18T17:29:01;174.50;;;40.20;;
57315;SDS011;43156;50.942;18.144;2022-12-18T17:38:59;113.50;;;26.00;;
57315;SDS011;43156;50.942;18.144;2022-12-18T17:48:59;108.40;;;33.30;;
57315;SDS011;43156;50.942;18.144;2022-12-18T17:59:01;128.40;;;26.00;;
57315;SDS011;43156;50.942;18.144;2022-12-18T18:28:13;162.80;;;38.90;;
57315;SDS011;43156;50.942;18.144;2022-12-18T18:38:23;104.00;;;22.00;;
57315;SDS011;43156;50.942;18.144;2022-12-18T18:48:21;92.00;;;22.30;;
57315;SDS011;43156;50.942;18.144;2022-12-18T18:58:27;88.80;;;23.10;;
57315;SDS011;43156;50.942;18.144;2022-12-18T19:15:52;72.50;;;26.70;;
57315;SDS011;43156;50.942;18.144;2022-12-18T19:25:53;80.00;;;24.20;;
57315;SDS011;43156;50.942;18.144;2022-12-18T19:35:50;81.30;;;23.70;;
57315;SDS011;43156;50.942;18.144;2022-12-18T19:45:45;88.50;;;26.30;;
57315;SDS011;43156;50.942;18.144;2022-12-18T19:55:50;38.20;;;14.20;;
57315;SDS011;43156;50.942;18.144;2022-12-18T20:05:41;60.30;;;20.70;;
57315;SDS011;43156;50.942;18.144;2022-12-18T20:15:33;77.20;;;15.00;;
57315;SDS011;43156;50.942;18.144;2022-12-18T20:25:27;89.80;;;30.20;;
57315;SDS011;43156;50.942;18.144;2022-12-18T20:35:27;75.60;;;23.50;;
57315;SDS011;43156;50.942;18.144;2022-12-18T20:45:27;86.70;;;31.70;;
57315;SDS011;43156;50.942;18.144;2022-12-18T20:55:23;95.40;;;30.00;;
57315;SDS011;43156;50.942;18.144;2022-12-18T21:05:24;76.10;;;26.20;;
57315;SDS011;43156;50.942;18.144;2022-12-18T21:15:34;85.50;;;27.60;;
57315;SDS011;43156;50.942;18.144;2022-12-18T21:25:46;86.90;;;28.90;;
57315;SDS011;43156;50.942;18.144;2022-12-18T21:35:39;56.70;;;19.20;;
57315;SDS011;43156;50.942;18.144;2022-12-18T21:45:50;77.60;;;25.50;;
57315;SDS011;43156;50.942;18.144;2022-12-18T22:02:59;89.00;;;24.80;;
57315;SDS011;43156;50.942;18.144;2022-12-18T22:12:58;61.50;;;24.80;;
57315;SDS011;43156;50.942;18.144;2022-12-18T22:22:47;74.50;;;27.50;;
57315;SDS011;43156;50.942;18.144;2022-12-18T22:40:22;83.00;;;25.90;;
57315;SDS011;43156;50.942;18.144;2022-12-18T22:57:33;79.80;;;30.40;;
57315;SDS011;43156;50.942;18.144;2022-12-18T23:07:25;72.10;;;24.10;;
57315;SDS011;43156;50.942;18.144;2022-12-18T23:17:20;73.20;;;26.90;;
57315;SDS011;43156;50.942;18.144;2022-12-18T23:27:08;75.90;;;25.20;;
57315;SDS011;43156;50.942;18.144;2022-12-18T23:37:01;99.40;;;33.50;;
57315;SDS011;43156;50.942;18.144;2022-12-18T23:46:50;58.10;;;18.90;;
57315;SDS011;43156;50.942;18.144;2022-12-18T23:56:38;59.20;;;18.50;;
